Detall de PIREP

Printer-friendly versionPDF version

[2012/11/24 10:35:00]
Flight IATA:CT3110
Pilot Number:011
Company ICAO:CAT
Aircraft Type:F50/A
PAX:50
Aircraft Registration:DREAMWINGS
Departing Airport: LEBL
Destination Airport: LEPA
Alternate Airport:LEBL
Online: VATSIM
Route:LARPA B31 TOLSO
Flight Level:F150
No Slew and time accel
No pause
Crash detect
Detect pilot in Cockpit between each 30 and 45 minutes
10:35 Zero fuel Weight: 42043 Lbs, Fuel Weight: 2266 Lbs
10:35 VATSIM:LEBL 240930Z 32006KT 9999 FEW012 14/10 Q1021 NOSIG
10:35 VATSIM:LEPA 240930Z 00000KT 9999 FEW025 18/16 Q1022 NOSIG
10:37 Parking Brakes off
10:49 Take-off
10:49 Take off Weight: 44202 Lbs
10:49 Wind: 302º @ 003 Knots Heading: 245º
10:49 POS N41º 17´ 15´´ E002º 05´ 22´´
10:49 Flaps:3 at 149 Knots
10:49 Gear Up: 145 Knots
10:50 Flaps:2 at 160 Knots
10:51 Flaps:1 at 161 Knots
10:51 Flaps:0 at 164 Knots
10:56 TOC
10:56 Fuel Weight: 1900 Lb
11:04 Wind:234º@004 Knots Heading: 166º Ground Speed: 253 Knots Altitude 15219 ft
11:08 TOD
11:08 Fuel Weight: 1591 Lb
11:19 Wind:182º@009 Knots Heading: 208º Ground Speed: 192 Knots Altitude 6499 ft
11:26 Flaps:1 at 181 Knots
11:26 Flaps:2 at 166 Knots
11:26 Flaps:3 at 151 Knots
11:27 Gear Down: 144 Knots
11:27 Gear Up: 130 Knots
11:27 Gear Down: 130 Knots
11:27 Flaps:4 at 124 Knots
11:27 Flaps:5 at 115 Knots
11:28 Flaps:6 at 107 Knots
11:29 TouchDown:Rate -196 ft/min Speed: 93 Knots
11:29 VATSIM:LEPA 241030Z VRB01KT 9999 SCT022 18/14 Q1021 NOSIG
11:29 Land
11:29 Wind:176º@005 Knots
11:29 Heading: 074º
11:29 Flight Duration: 00:40
11:29 Landing Weight: 43440 Lbs
11:29 POS N39º 33´ 18´´ E002º 43´ 39´´
11:31 Parking brakes on
11:31 Block to Block Duration: 00:54
11:31 Final Fuel: 1386 Lbls
11:31 Spent Fuel: 879 Lbls
11:31 Flight Length: 96 NM
11:31 TOD Land Length: 23 NM

Exportar CSV

Powered by Drupal - Modified by Danger4k